createdAt,value
2022-10-25T00:00:51.249Z,990.85
2022-10-25T00:01:51.347Z,990.85
2022-10-25T00:02:51.232Z,990.82
2022-10-25T00:03:51.237Z,990.86
2022-10-25T00:04:51.214Z,990.84
2022-10-25T00:05:51.210Z,990.89
2022-10-25T00:06:51.196Z,990.87
2022-10-25T00:07:51.185Z,990.84
2022-10-25T00:08:51.190Z,990.88
2022-10-25T00:09:51.171Z,990.87
2022-10-25T00:10:51.164Z,990.93
2022-10-25T00:11:51.161Z,990.89
2022-10-25T00:12:51.166Z,990.91
2022-10-25T00:13:51.154Z,990.87
2022-10-25T00:14:51.130Z,990.97
2022-10-25T00:15:51.133Z,990.98
2022-10-25T00:16:51.115Z,991.05
2022-10-25T00:17:51.121Z,990.99
2022-10-25T00:18:51.106Z,990.99
2022-10-25T00:19:51.101Z,990.96
2022-10-25T00:20:51.147Z,990.98
2022-10-25T00:21:51.091Z,991.02
2022-10-25T00:22:51.084Z,990.98
2022-10-25T00:23:51.082Z,990.95
2022-10-25T00:24:51.062Z,990.97
2022-10-25T00:25:51.052Z,990.97
2022-10-25T00:26:51.041Z,991.01
2022-10-25T00:27:51.042Z,991.00
2022-10-25T00:29:51.107Z,991.00
2022-10-25T00:30:51.098Z,990.96
2022-10-25T00:31:51.093Z,991.00
2022-10-25T00:32:51.080Z,990.90
2022-10-25T00:33:51.074Z,990.98
2022-10-25T00:34:51.066Z,990.98
2022-10-25T00:35:51.071Z,991.00
2022-10-25T00:36:51.056Z,991.02
2022-10-25T00:37:51.050Z,991.06
2022-10-25T00:38:51.038Z,991.06
2022-10-25T00:39:51.022Z,991.03
2022-10-25T00:40:52.099Z,991.06
2022-10-25T00:41:53.105Z,991.02
2022-10-25T00:42:52.101Z,991.05
2022-10-25T00:43:52.085Z,991.06
2022-10-25T00:44:52.075Z,990.96
2022-10-25T00:45:52.133Z,991.05
2022-10-25T00:46:52.077Z,991.04
2022-10-25T00:47:52.055Z,991.08
2022-10-25T00:48:53.984Z,991.07
2022-10-25T00:49:52.044Z,991.07
2022-10-25T00:50:52.039Z,991.07
2022-10-25T00:51:52.020Z,991.11
2022-10-25T00:52:52.008Z,991.10
2022-10-25T00:53:51.995Z,991.13
2022-10-25T00:54:53.000Z,991.12
2022-10-25T00:55:51.994Z,991.14
2022-10-25T00:56:51.983Z,991.19
2022-10-25T00:57:51.995Z,991.14
2022-10-25T00:58:51.966Z,991.11
2022-10-25T00:59:51.976Z,991.14
2022-10-25T01:03:16.975Z,991.18
2022-10-25T01:03:36.607Z,991.15
2022-10-25T01:04:36.600Z,991.19
2022-10-25T01:05:36.590Z,991.15
2022-10-25T01:06:38.548Z,991.16
2022-10-25T01:07:37.666Z,991.17
2022-10-25T01:08:37.665Z,991.16
2022-10-25T01:09:37.657Z,991.15
2022-10-25T01:10:37.642Z,991.16
2022-10-25T01:11:37.635Z,991.17
2022-10-25T01:12:37.627Z,991.18
2022-10-25T01:13:37.623Z,991.17
2022-10-25T01:14:37.609Z,991.13
2022-10-25T01:15:37.616Z,991.17
2022-10-25T01:16:37.595Z,991.20
2022-10-25T01:17:37.598Z,991.14
2022-10-25T01:18:37.588Z,991.18
2022-10-25T01:19:37.573Z,991.14
2022-10-25T01:20:37.574Z,991.17
2022-10-25T01:21:37.550Z,991.16
2022-10-25T01:22:37.546Z,991.13
2022-10-25T01:23:37.541Z,991.16
2022-10-25T01:24:37.531Z,991.14
2022-10-25T01:25:37.538Z,991.14
2022-10-25T01:26:37.538Z,991.17
2022-10-25T01:27:37.516Z,991.11
2022-10-25T01:28:37.507Z,991.04
2022-10-25T01:29:37.495Z,991.07
2022-10-25T01:30:37.487Z,991.08
2022-10-25T01:31:37.492Z,991.05
2022-10-25T01:32:37.465Z,991.10
2022-10-25T01:33:37.464Z,991.05
2022-10-25T01:34:37.457Z,991.06
2022-10-25T01:35:37.442Z,991.12
2022-10-25T01:36:37.460Z,991.04
2022-10-25T01:37:37.458Z,990.99
2022-10-25T01:38:37.420Z,991.02
2022-10-25T01:39:37.420Z,991.02
2022-10-25T01:40:37.405Z,991.03
2022-10-25T01:41:37.404Z,990.99
2022-10-25T01:42:37.396Z,991.00
2022-10-25T01:43:37.375Z,990.97
2022-10-25T01:44:37.428Z,990.98
2022-10-25T01:45:37.361Z,990.95
2022-10-25T01:46:38.068Z,990.98
2022-10-25T01:47:37.351Z,991.02
2022-10-25T01:48:37.341Z,990.96
2022-10-25T01:49:37.343Z,991.01
2022-10-25T01:50:37.328Z,991.02
2022-10-25T01:51:37.317Z,990.97
2022-10-25T01:52:37.302Z,990.94
2022-10-25T01:53:37.299Z,990.94
2022-10-25T01:54:37.310Z,990.99
2022-10-25T01:55:37.286Z,990.95
2022-10-25T01:56:37.288Z,991.01
2022-10-25T01:57:37.271Z,991.04
2022-10-25T01:58:37.259Z,990.97
2022-10-25T01:59:37.256Z,990.97
2022-10-25T02:00:37.270Z,990.96
2022-10-25T02:01:37.453Z,990.99
2022-10-25T02:02:37.228Z,991.05
2022-10-25T02:03:37.215Z,991.06
2022-10-25T02:04:37.210Z,991.02
2022-10-25T02:05:37.211Z,991.08
2022-10-25T02:06:37.196Z,991.10
2022-10-25T02:07:37.222Z,991.06
2022-10-25T02:08:37.186Z,991.16
2022-10-25T02:09:37.167Z,991.10
2022-10-25T02:10:37.160Z,991.14
2022-10-25T02:11:37.174Z,991.11
2022-10-25T02:12:37.150Z,991.18
2022-10-25T02:13:37.141Z,991.19
2022-10-25T02:14:37.150Z,991.09
2022-10-25T02:15:37.117Z,991.15
2022-10-25T02:16:37.124Z,991.12
2022-10-25T02:17:37.112Z,991.17
2022-10-25T02:18:37.109Z,991.24
2022-10-25T02:19:37.095Z,991.26
2022-10-25T02:20:37.093Z,991.26
2022-10-25T02:21:37.075Z,991.22
2022-10-25T02:22:37.070Z,991.22
2022-10-25T02:23:37.055Z,991.28
2022-10-25T02:24:37.051Z,991.28
2022-10-25T02:25:37.049Z,991.28
2022-10-25T02:26:37.095Z,991.25
2022-10-25T02:27:37.022Z,991.24
2022-10-25T02:28:37.020Z,991.17
2022-10-25T02:29:37.011Z,991.22
2022-10-25T02:30:37.002Z,991.16
2022-10-25T02:31:36.999Z,991.16
2022-10-25T02:32:37.499Z,991.20
2022-10-25T02:33:36.976Z,991.19
2022-10-25T02:34:36.982Z,991.12
2022-10-25T02:35:36.961Z,991.15
2022-10-25T02:36:36.959Z,991.12
2022-10-25T02:37:36.942Z,991.16
2022-10-25T02:38:36.934Z,991.09
2022-10-25T02:39:36.928Z,991.16
2022-10-25T02:40:36.918Z,991.13
2022-10-25T02:41:36.928Z,991.17
2022-10-25T02:42:36.905Z,991.18
2022-10-25T02:43:36.891Z,991.16
2022-10-25T02:44:37.504Z,991.17
2022-10-25T02:45:36.878Z,991.18
2022-10-25T02:46:36.877Z,991.20
2022-10-25T02:47:36.867Z,991.22
2022-10-25T02:48:36.853Z,991.24
2022-10-25T02:49:36.855Z,991.23
2022-10-25T02:50:36.859Z,991.24
2022-10-25T02:51:36.835Z,991.30
2022-10-25T02:52:36.830Z,991.22
2022-10-25T02:53:36.816Z,991.22
2022-10-25T02:54:36.804Z,991.25
2022-10-25T02:55:36.798Z,991.24
2022-10-25T02:56:36.789Z,991.23
2022-10-25T02:57:36.788Z,991.28
2022-10-25T02:58:36.773Z,991.21
2022-10-25T02:59:36.763Z,991.25
2022-10-25T03:00:36.789Z,991.25
2022-10-25T03:01:36.766Z,991.24
2022-10-25T03:02:36.736Z,991.27
2022-10-25T03:03:36.729Z,991.27
2022-10-25T03:04:37.509Z,991.28
2022-10-25T03:05:36.724Z,991.32
2022-10-25T03:06:36.715Z,991.26
2022-10-25T03:07:36.696Z,991.22
2022-10-25T03:08:36.687Z,991.28
2022-10-25T03:09:36.688Z,991.31
2022-10-25T03:10:36.682Z,991.32
2022-10-25T03:11:36.666Z,991.31
2022-10-25T03:12:36.666Z,991.30
2022-10-25T03:13:36.656Z,991.33
2022-10-25T03:14:36.643Z,991.33
2022-10-25T03:15:36.637Z,991.34
2022-10-25T03:16:37.525Z,991.31
2022-10-25T03:17:36.633Z,991.35
2022-10-25T03:18:36.620Z,991.39
2022-10-25T03:19:36.604Z,991.35
2022-10-25T03:20:36.597Z,991.41
2022-10-25T03:21:38.765Z,991.38
2022-10-25T03:22:36.597Z,991.39
2022-10-25T03:23:36.588Z,991.45
2022-10-25T03:24:36.566Z,991.45
2022-10-25T03:25:36.573Z,991.46
2022-10-25T03:26:36.545Z,991.46
2022-10-25T03:27:36.548Z,991.46
2022-10-25T03:28:36.536Z,991.45
2022-10-25T03:29:36.520Z,991.48
2022-10-25T03:30:36.536Z,991.48
2022-10-25T03:31:36.506Z,991.52
2022-10-25T03:32:36.515Z,991.53
2022-10-25T03:33:36.496Z,991.55
2022-10-25T03:34:36.494Z,991.59
2022-10-25T03:35:36.474Z,991.56
2022-10-25T03:36:36.465Z,991.60
2022-10-25T03:37:39.017Z,991.60
2022-10-25T03:38:36.452Z,991.60
2022-10-25T03:39:36.445Z,991.54
2022-10-25T03:40:36.433Z,991.59
2022-10-25T03:41:36.430Z,991.60
2022-10-25T03:42:36.445Z,991.54
2022-10-25T03:43:36.409Z,991.55
2022-10-25T03:44:36.414Z,991.58
2022-10-25T03:45:36.394Z,991.59
2022-10-25T03:46:36.401Z,991.60
2022-10-25T03:47:36.385Z,991.59
2022-10-25T03:48:36.369Z,991.67
2022-10-25T03:49:36.369Z,991.63
2022-10-25T03:50:36.367Z,991.63
2022-10-25T03:51:36.345Z,991.66
2022-10-25T03:52:36.339Z,991.68
2022-10-25T03:53:36.337Z,991.72
2022-10-25T03:54:37.094Z,991.74
2022-10-25T03:55:36.317Z,991.72
2022-10-25T03:56:36.302Z,991.67
2022-10-25T03:57:36.297Z,991.66
2022-10-25T03:58:36.296Z,991.67
2022-10-25T03:59:36.280Z,991.67
2022-10-25T04:00:36.361Z,991.73
2022-10-25T04:01:36.386Z,991.74
2022-10-25T04:02:36.254Z,991.78
2022-10-25T04:03:36.250Z,991.75
2022-10-25T04:04:36.239Z,991.74
2022-10-25T04:05:36.241Z,991.81
2022-10-25T04:06:36.225Z,991.78
2022-10-25T04:07:36.215Z,991.79
2022-10-25T04:08:36.215Z,991.78
2022-10-25T04:09:36.200Z,991.80
2022-10-25T04:10:37.025Z,991.81
2022-10-25T04:11:36.187Z,991.83
2022-10-25T04:12:36.177Z,991.80
2022-10-25T04:13:36.168Z,991.80
2022-10-25T04:14:36.165Z,991.74
2022-10-25T04:15:36.155Z,991.73
2022-10-25T04:16:36.169Z,991.76
2022-10-25T04:17:36.139Z,991.75
2022-10-25T04:18:36.131Z,991.73
2022-10-25T04:19:37.105Z,991.70
2022-10-25T04:20:36.101Z,991.81
2022-10-25T04:21:37.129Z,991.75
2022-10-25T04:23:36.095Z,991.75
2022-10-25T04:24:36.078Z,991.80
2022-10-25T04:25:36.075Z,991.76
2022-10-25T04:26:36.072Z,991.78
2022-10-25T04:27:36.062Z,991.78
2022-10-25T04:28:36.044Z,991.74
2022-10-25T04:29:36.038Z,991.77
2022-10-25T04:30:38.086Z,991.81
2022-10-25T04:31:36.032Z,991.79
2022-10-25T04:32:36.020Z,991.80
2022-10-25T04:33:36.003Z,991.80
2022-10-25T04:34:36.004Z,991.79
2022-10-25T04:35:36.000Z,991.81
2022-10-25T04:36:35.976Z,991.81
2022-10-25T04:37:35.981Z,991.86
2022-10-25T04:38:36.532Z,991.85
2022-10-25T04:39:35.959Z,991.86
2022-10-25T04:40:35.970Z,991.84
2022-10-25T04:41:36.611Z,991.85
2022-10-25T04:42:35.927Z,991.87
2022-10-25T04:43:35.924Z,991.92
2022-10-25T04:44:35.912Z,991.88
2022-10-25T04:45:35.943Z,991.97
2022-10-25T04:46:35.897Z,991.87
2022-10-25T04:47:35.884Z,991.91
2022-10-25T04:48:36.878Z,991.89
2022-10-25T04:49:35.872Z,991.85
2022-10-25T04:50:35.860Z,991.88
2022-10-25T04:51:35.857Z,991.94
2022-10-25T04:52:35.857Z,991.95
2022-10-25T04:53:36.540Z,991.98
2022-10-25T04:54:35.830Z,992.02
2022-10-25T04:55:35.818Z,992.02
2022-10-25T04:56:35.810Z,992.04
2022-10-25T04:57:35.810Z,992.04
2022-10-25T04:58:35.795Z,992.02
2022-10-25T04:59:35.801Z,992.03
2022-10-25T05:00:35.779Z,992.02
2022-10-25T05:01:35.858Z,992.03
2022-10-25T05:02:35.838Z,992.02
2022-10-25T05:03:35.756Z,992.03
2022-10-25T05:04:35.748Z,992.02
2022-10-25T05:05:35.748Z,992.05
2022-10-25T05:06:35.732Z,992.01
2022-10-25T05:07:35.737Z,992.04
2022-10-25T05:08:35.716Z,992.04
2022-10-25T05:09:35.710Z,992.00
2022-10-25T05:10:35.717Z,992.01
2022-10-25T05:12:35.690Z,992.06
2022-10-25T05:13:35.680Z,992.03
2022-10-25T05:14:35.672Z,992.02
2022-10-25T05:15:35.670Z,992.07
2022-10-25T05:16:35.666Z,992.02
2022-10-25T05:17:35.652Z,992.10
2022-10-25T05:18:35.638Z,992.04
2022-10-25T05:19:35.642Z,992.01
2022-10-25T05:20:35.637Z,992.09
2022-10-25T05:21:35.624Z,992.09
2022-10-25T05:22:35.599Z,992.12
2022-10-25T05:23:36.185Z,992.10
2022-10-25T05:24:35.594Z,992.12
2022-10-25T05:25:35.663Z,992.16
2022-10-25T05:26:35.573Z,992.10
2022-10-25T05:27:35.562Z,992.12
2022-10-25T05:28:35.552Z,992.10
2022-10-25T05:29:35.547Z,992.12
2022-10-25T05:30:35.542Z,992.16
2022-10-25T05:31:35.523Z,992.19
2022-10-25T05:32:35.525Z,992.13
2022-10-25T05:33:35.508Z,992.12
2022-10-25T05:34:35.509Z,992.08
2022-10-25T05:35:35.501Z,992.16
2022-10-25T05:36:35.491Z,992.17
2022-10-25T05:37:35.479Z,992.21
2022-10-25T05:38:37.670Z,992.24
2022-10-25T05:39:36.501Z,992.22
2022-10-25T05:40:35.453Z,992.28
2022-10-25T05:41:37.164Z,992.30
2022-10-25T05:42:35.443Z,992.33
2022-10-25T05:43:35.439Z,992.31
2022-10-25T05:44:35.646Z,992.31
2022-10-25T05:45:35.420Z,992.28
2022-10-25T05:46:35.428Z,992.32
2022-10-25T05:47:35.401Z,992.31
2022-10-25T05:48:35.432Z,992.33
2022-10-25T05:49:35.393Z,992.32
2022-10-25T05:50:35.418Z,992.35
2022-10-25T05:51:36.515Z,992.40
2022-10-25T05:52:36.359Z,992.43
2022-10-25T05:53:35.355Z,992.44
2022-10-25T05:54:35.406Z,992.44
2022-10-25T05:55:35.339Z,992.40
2022-10-25T05:56:35.342Z,992.42
2022-10-25T05:57:35.328Z,992.47
2022-10-25T05:58:35.310Z,992.43
2022-10-25T05:59:35.319Z,992.44
2022-10-25T06:00:35.367Z,992.45
2022-10-25T06:01:35.423Z,992.44
2022-10-25T06:02:35.286Z,992.44
2022-10-25T06:03:35.274Z,992.45
2022-10-25T06:04:35.276Z,992.45
2022-10-25T06:05:35.256Z,992.50
2022-10-25T06:06:35.277Z,992.53
2022-10-25T06:07:35.245Z,992.54
2022-10-25T06:08:35.246Z,992.59
2022-10-25T06:09:35.231Z,992.60
2022-10-25T06:10:35.275Z,992.52
2022-10-25T06:11:35.209Z,992.61
2022-10-25T06:12:35.199Z,992.57
2022-10-25T06:13:35.193Z,992.61
2022-10-25T06:14:35.190Z,992.58
2022-10-25T06:15:36.056Z,992.57
2022-10-25T06:16:35.172Z,992.57
2022-10-25T06:17:35.154Z,992.57
2022-10-25T06:18:35.148Z,992.55
2022-10-25T06:19:35.148Z,992.57
2022-10-25T06:20:35.206Z,992.56
2022-10-25T06:21:35.129Z,992.51
2022-10-25T06:22:35.120Z,992.56
2022-10-25T06:23:35.123Z,992.57
2022-10-25T06:24:35.115Z,992.61
2022-10-25T06:25:35.097Z,992.67
2022-10-25T06:26:35.092Z,992.74
2022-10-25T06:27:35.080Z,992.77
2022-10-25T06:28:35.067Z,992.80
2022-10-25T06:29:35.073Z,992.80
2022-10-25T06:30:35.068Z,992.87
2022-10-25T06:31:35.645Z,992.83
2022-10-25T06:32:35.041Z,992.90
2022-10-25T06:33:35.045Z,992.87
2022-10-25T06:34:35.020Z,992.85
2022-10-25T06:35:35.014Z,992.88
2022-10-25T06:36:35.008Z,992.97
2022-10-25T06:37:35.004Z,992.93
2022-10-25T06:38:35.005Z,993.00
2022-10-25T06:39:34.989Z,993.03
2022-10-25T06:40:34.977Z,993.02
2022-10-25T06:41:36.022Z,993.08
2022-10-25T06:42:34.965Z,993.10
2022-10-25T06:43:34.938Z,993.07
2022-10-25T06:44:35.945Z,993.13
2022-10-25T06:45:35.645Z,993.14
2022-10-25T06:46:40.573Z,993.19
2022-10-25T06:47:35.916Z,993.18
2022-10-25T06:48:34.905Z,993.22
2022-10-25T06:49:34.904Z,993.16
2022-10-25T06:50:34.911Z,993.16
2022-10-25T06:51:35.570Z,993.17
2022-10-25T06:52:34.877Z,993.17
2022-10-25T06:53:34.865Z,993.16
2022-10-25T06:54:34.856Z,993.20
2022-10-25T06:55:34.848Z,993.13
2022-10-25T06:56:34.854Z,993.14
2022-10-25T06:57:35.563Z,993.15
2022-10-25T06:58:34.827Z,993.16
2022-10-25T06:59:34.821Z,993.25
2022-10-25T07:00:34.819Z,993.23
2022-10-25T07:01:34.926Z,993.26
2022-10-25T07:02:34.790Z,993.18
2022-10-25T07:03:34.795Z,993.30
2022-10-25T07:04:34.796Z,993.27
2022-10-25T07:05:34.775Z,993.21
2022-10-25T07:06:34.773Z,993.26
2022-10-25T07:07:34.759Z,993.20
2022-10-25T07:08:34.748Z,993.22
2022-10-25T07:09:34.738Z,993.29
2022-10-25T07:10:34.770Z,993.27
2022-10-25T07:11:34.732Z,993.33
2022-10-25T07:12:34.728Z,993.38
2022-10-25T07:13:34.743Z,993.44
2022-10-25T07:14:34.701Z,993.48
2022-10-25T07:15:36.415Z,993.48
2022-10-25T07:16:34.690Z,993.49
2022-10-25T07:17:34.684Z,993.51
2022-10-25T07:18:34.665Z,993.45
2022-10-25T07:19:34.657Z,993.49
2022-10-25T07:20:34.652Z,993.53
2022-10-25T07:21:34.660Z,993.52
2022-10-25T07:22:34.642Z,993.53
2022-10-25T07:23:34.630Z,993.55
2022-10-25T07:24:34.627Z,993.59
2022-10-25T07:25:34.627Z,993.52
2022-10-25T07:26:34.614Z,993.51
2022-10-25T07:27:34.598Z,993.53
2022-10-25T07:28:34.588Z,993.57
2022-10-25T07:29:35.581Z,993.53
2022-10-25T07:30:34.597Z,993.60
2022-10-25T07:31:34.699Z,993.56
2022-10-25T07:32:37.581Z,993.55
2022-10-25T07:33:35.555Z,993.48
2022-10-25T07:34:34.544Z,993.57
2022-10-25T07:35:41.971Z,993.57
2022-10-25T07:36:36.530Z,993.55
2022-10-25T07:37:34.543Z,993.52
2022-10-25T07:38:34.524Z,993.54
2022-10-25T07:39:35.085Z,993.54
2022-10-25T07:40:34.501Z,993.57
2022-10-25T07:41:34.492Z,993.55
2022-10-25T07:42:34.485Z,993.57
2022-10-25T07:43:34.485Z,993.58
2022-10-25T07:44:34.539Z,993.53
2022-10-25T07:45:34.461Z,993.58
2022-10-25T07:46:34.455Z,993.55
2022-10-25T07:47:34.462Z,993.50
2022-10-25T07:48:34.445Z,993.53
2022-10-25T07:49:34.427Z,993.52
2022-10-25T07:50:34.417Z,993.54
2022-10-25T07:51:34.413Z,993.47
2022-10-25T07:52:34.411Z,993.42
2022-10-25T07:53:34.406Z,993.47
2022-10-25T07:54:34.434Z,993.45
2022-10-25T07:55:34.377Z,993.47
2022-10-25T07:56:34.421Z,993.48
2022-10-25T07:57:36.101Z,993.49
2022-10-25T07:58:34.884Z,993.57
2022-10-25T07:59:34.346Z,993.54
2022-10-25T08:00:34.362Z,993.56
2022-10-25T08:01:34.403Z,993.58
2022-10-25T08:02:34.320Z,993.58
2022-10-25T08:03:34.321Z,993.67
2022-10-25T08:04:34.323Z,993.63
2022-10-25T08:05:34.294Z,993.66
2022-10-25T08:06:34.298Z,993.60
2022-10-25T08:07:34.280Z,993.59
2022-10-25T08:08:34.264Z,993.61
2022-10-25T08:09:38.279Z,993.63
2022-10-25T08:10:35.270Z,993.64
2022-10-25T08:11:34.246Z,993.64
2022-10-25T08:12:34.237Z,993.69
2022-10-25T08:13:34.232Z,993.64
2022-10-25T08:14:36.453Z,993.67
2022-10-25T08:15:35.213Z,993.68
2022-10-25T08:16:34.199Z,993.62
2022-10-25T08:17:34.209Z,993.69
2022-10-25T08:18:34.189Z,993.62
2022-10-25T08:19:34.207Z,993.66
2022-10-25T08:20:56.768Z,993.72
2022-10-25T08:21:36.170Z,993.69
2022-10-25T08:22:34.155Z,993.75
2022-10-25T08:23:34.148Z,993.74
2022-10-25T08:24:34.154Z,993.66
2022-10-25T08:25:34.145Z,993.77
2022-10-25T08:26:36.772Z,993.78
2022-10-25T08:27:35.135Z,993.84
2022-10-25T08:28:34.109Z,993.76
2022-10-25T08:29:34.113Z,993.78
2022-10-25T08:30:34.095Z,993.81
2022-10-25T08:31:34.100Z,993.82
2022-10-25T08:32:34.078Z,993.80
2022-10-25T08:33:34.077Z,993.82
2022-10-25T08:34:34.064Z,993.80
2022-10-25T08:35:34.116Z,993.76
2022-10-25T08:36:34.074Z,993.87
2022-10-25T08:37:34.074Z,993.86
2022-10-25T08:38:34.598Z,993.84
2022-10-25T08:39:34.020Z,993.84
2022-10-25T08:40:34.038Z,993.85
2022-10-25T08:41:34.227Z,993.93
2022-10-25T08:42:33.997Z,993.86
2022-10-25T08:43:33.996Z,993.86
2022-10-25T08:44:33.985Z,993.88
2022-10-25T08:45:34.013Z,993.86
2022-10-25T08:46:33.970Z,993.87
2022-10-25T08:47:33.956Z,993.87
2022-10-25T08:48:33.956Z,993.91
2022-10-25T08:49:33.947Z,993.96
2022-10-25T08:50:33.932Z,993.93
2022-10-25T08:51:33.940Z,993.87
2022-10-25T08:52:33.916Z,993.89
2022-10-25T08:53:33.913Z,993.90
2022-10-25T08:54:33.904Z,993.96
2022-10-25T08:55:33.900Z,993.89
2022-10-25T08:56:37.187Z,993.95
2022-10-25T08:57:34.882Z,993.95
2022-10-25T08:58:33.869Z,993.86
2022-10-25T08:59:33.862Z,993.96
2022-10-25T09:00:34.609Z,993.90
2022-10-25T09:01:33.998Z,993.92
2022-10-25T09:02:34.101Z,994.05
2022-10-25T09:03:33.881Z,994.02
2022-10-25T09:04:33.837Z,994.03
2022-10-25T09:05:33.814Z,993.98
2022-10-25T09:06:34.215Z,993.97
2022-10-25T09:07:33.795Z,993.96
2022-10-25T09:08:33.788Z,994.04
2022-10-25T09:09:33.786Z,994.00
2022-10-25T09:10:33.767Z,993.96
2022-10-25T09:11:33.767Z,994.03
2022-10-25T09:12:33.751Z,993.99
2022-10-25T09:14:34.688Z,994.04
2022-10-25T09:15:35.122Z,994.04
2022-10-25T09:16:33.729Z,994.00
2022-10-25T09:17:33.711Z,994.02
2022-10-25T09:18:33.707Z,994.02
2022-10-25T09:19:33.693Z,994.01
2022-10-25T09:20:33.692Z,994.05
2022-10-25T09:21:33.690Z,994.04
2022-10-25T09:22:33.675Z,994.05
2022-10-25T09:23:33.704Z,994.07
2022-10-25T09:24:33.684Z,994.03
2022-10-25T09:25:33.649Z,994.09
2022-10-25T09:26:33.660Z,994.12
2022-10-25T09:27:33.631Z,994.03
2022-10-25T09:28:33.636Z,994.09
2022-10-25T09:29:33.628Z,994.11
2022-10-25T09:30:33.621Z,994.10
2022-10-25T09:31:33.604Z,994.11
2022-10-25T09:32:33.588Z,994.06
2022-10-25T09:33:33.591Z,994.12
2022-10-25T09:34:33.576Z,994.10
2022-10-25T09:35:33.635Z,994.14
2022-10-25T09:36:33.559Z,994.14
2022-10-25T09:37:33.570Z,994.15
2022-10-25T09:38:33.614Z,994.23
2022-10-25T09:39:33.541Z,994.15
2022-10-25T09:40:33.527Z,994.12
2022-10-25T09:41:33.558Z,994.11
2022-10-25T09:42:33.513Z,994.18
2022-10-25T09:43:33.509Z,994.10
2022-10-25T09:44:33.500Z,994.20
2022-10-25T09:45:33.539Z,994.08
2022-10-25T09:46:33.494Z,994.13
2022-10-25T09:47:33.469Z,994.25
2022-10-25T09:48:33.532Z,994.11
2022-10-25T09:49:33.489Z,994.19
2022-10-25T09:50:33.478Z,994.21
2022-10-25T09:51:33.482Z,994.22
2022-10-25T09:52:34.198Z,994.19
2022-10-25T09:53:33.418Z,994.15
2022-10-25T09:54:33.414Z,994.19
2022-10-25T09:55:33.426Z,994.08
2022-10-25T09:56:33.393Z,994.10
2022-10-25T09:57:33.440Z,994.16
2022-10-25T09:58:33.377Z,994.20
2022-10-25T09:59:33.370Z,994.16
2022-10-25T10:00:33.370Z,994.24
2022-10-25T10:01:33.451Z,994.22
2022-10-25T10:02:33.438Z,994.23
2022-10-25T10:03:34.134Z,994.20
2022-10-25T10:04:33.326Z,994.27
2022-10-25T10:05:33.338Z,994.16
2022-10-25T10:06:33.366Z,994.18
2022-10-25T10:07:33.321Z,994.23
2022-10-25T10:08:33.326Z,994.20
2022-10-25T10:09:33.287Z,994.18
2022-10-25T10:10:33.304Z,994.19
2022-10-25T10:11:33.274Z,994.18
2022-10-25T10:12:33.271Z,994.25
2022-10-25T10:13:33.683Z,994.19
2022-10-25T10:14:33.260Z,994.22
2022-10-25T10:15:33.240Z,994.20
2022-10-25T10:16:33.243Z,994.19
2022-10-25T10:17:33.225Z,994.25
2022-10-25T10:18:33.202Z,994.18
2022-10-25T10:19:34.216Z,994.19
2022-10-25T10:20:33.217Z,994.19
2022-10-25T10:21:33.190Z,994.16
2022-10-25T10:22:33.201Z,994.19
2022-10-25T10:23:33.177Z,994.19
2022-10-25T10:24:33.176Z,994.21
2022-10-25T10:25:33.156Z,994.17
2022-10-25T10:26:33.155Z,994.21
2022-10-25T10:27:33.142Z,994.20
2022-10-25T10:28:33.133Z,994.22
2022-10-25T10:29:33.187Z,994.28
2022-10-25T10:30:33.116Z,994.26
2022-10-25T10:31:33.156Z,994.25
2022-10-25T10:32:33.129Z,994.26
2022-10-25T10:33:33.110Z,994.27
2022-10-25T10:34:33.100Z,994.22
2022-10-25T10:35:33.083Z,994.26
2022-10-25T10:36:33.054Z,994.24
2022-10-25T10:37:34.060Z,994.25
2022-10-25T10:38:33.045Z,994.26
2022-10-25T10:39:33.635Z,994.28
2022-10-25T10:40:33.041Z,994.29
2022-10-25T10:41:33.976Z,994.35
2022-10-25T10:42:33.012Z,994.27
2022-10-25T10:43:33.005Z,994.30
2022-10-25T10:44:33.003Z,994.36
2022-10-25T10:45:33.001Z,994.34
2022-10-25T10:46:32.996Z,994.34
2022-10-25T10:47:32.971Z,994.31
2022-10-25T10:48:33.005Z,994.34
2022-10-25T10:49:32.968Z,994.31
2022-10-25T10:50:33.162Z,994.32
2022-10-25T10:51:43.655Z,994.37
2022-10-25T10:52:34.942Z,994.42
2022-10-25T10:53:32.930Z,994.42
2022-10-25T10:54:32.918Z,994.36
2022-10-25T10:55:32.928Z,994.37
2022-10-25T10:56:33.646Z,994.31
2022-10-25T10:57:32.907Z,994.35
2022-10-25T10:58:32.928Z,994.40
2022-10-25T10:59:32.887Z,994.36
2022-10-25T11:00:32.870Z,994.32
2022-10-25T11:01:33.034Z,994.35
2022-10-25T11:02:33.138Z,994.47
2022-10-25T11:03:32.842Z,994.46
2022-10-25T11:04:32.854Z,994.47
2022-10-25T11:05:32.830Z,994.50
2022-10-25T11:06:32.834Z,994.49
2022-10-25T11:07:32.825Z,994.47
2022-10-25T11:08:32.817Z,994.42
2022-10-25T11:09:32.810Z,994.46
2022-10-25T11:10:32.793Z,994.43
2022-10-25T11:11:32.790Z,994.43
2022-10-25T11:12:34.165Z,994.55
2022-10-25T11:13:32.775Z,994.50
2022-10-25T11:14:32.755Z,994.51
2022-10-25T11:15:32.753Z,994.52
2022-10-25T11:16:32.742Z,994.54
2022-10-25T11:17:32.856Z,994.53
2022-10-25T11:18:32.738Z,994.53
2022-10-25T11:19:32.724Z,994.55
2022-10-25T11:20:32.715Z,994.54
2022-10-25T11:21:33.320Z,994.49
2022-10-25T11:22:33.146Z,994.49
2022-10-25T11:23:32.690Z,994.51
2022-10-25T11:24:32.680Z,994.48
2022-10-25T11:25:32.686Z,994.55
2022-10-25T11:26:33.654Z,994.55
2022-10-25T11:27:34.970Z,994.53
2022-10-25T11:28:34.167Z,994.52
2022-10-25T11:29:32.665Z,994.54
2022-10-25T11:30:32.626Z,994.54
2022-10-25T11:31:32.627Z,994.54
2022-10-25T11:32:32.670Z,994.49
2022-10-25T11:33:32.704Z,994.54
2022-10-25T11:34:32.607Z,994.61
2022-10-25T11:35:32.635Z,994.58
2022-10-25T11:36:32.603Z,994.61
2022-10-25T11:37:32.610Z,994.56
2022-10-25T11:38:32.585Z,994.55
2022-10-25T11:39:32.568Z,994.61
2022-10-25T11:40:32.561Z,994.67
2022-10-25T11:41:32.559Z,994.61
2022-10-25T11:42:32.530Z,994.63
2022-10-25T11:43:32.534Z,994.63
2022-10-25T11:44:32.518Z,994.63
2022-10-25T11:45:32.513Z,994.61
2022-10-25T11:46:32.499Z,994.62
2022-10-25T11:47:32.495Z,994.62
2022-10-25T11:48:32.495Z,994.59
2022-10-25T11:49:32.580Z,994.61
2022-10-25T11:50:32.484Z,994.66
2022-10-25T11:51:32.465Z,994.66
2022-10-25T11:52:32.467Z,994.64
2022-10-25T11:53:32.458Z,994.59
2022-10-25T11:54:32.449Z,994.65
2022-10-25T11:55:32.445Z,994.64
2022-10-25T11:56:32.475Z,994.64
2022-10-25T11:57:32.429Z,994.60
2022-10-25T11:58:33.169Z,994.63
2022-10-25T11:59:32.410Z,994.63
2022-10-25T12:00:32.413Z,994.59
2022-10-25T12:01:32.454Z,994.60
2022-10-25T12:02:32.416Z,994.64
2022-10-25T12:03:32.379Z,994.64
2022-10-25T12:04:33.702Z,994.64
2022-10-25T12:05:33.468Z,994.59
2022-10-25T12:06:32.361Z,994.58
2022-10-25T12:07:32.364Z,994.65
2022-10-25T12:08:32.353Z,994.58
2022-10-25T12:10:04.723Z,994.63
2022-10-25T12:10:32.414Z,994.58
2022-10-25T12:11:32.323Z,994.62
2022-10-25T12:12:32.311Z,994.61
2022-10-25T12:13:32.315Z,994.58
2022-10-25T12:14:32.289Z,994.59
2022-10-25T12:15:32.280Z,994.56
2022-10-25T12:16:32.274Z,994.59
2022-10-25T12:17:32.270Z,994.59
2022-10-25T12:18:33.203Z,994.57
2022-10-25T12:19:32.251Z,994.58
2022-10-25T12:20:32.286Z,994.57
2022-10-25T12:21:32.334Z,994.59
2022-10-25T12:22:32.236Z,994.57
2022-10-25T12:23:32.217Z,994.53
2022-10-25T12:24:32.206Z,994.54
2022-10-25T12:25:32.212Z,994.50
2022-10-25T12:26:32.195Z,994.59
2022-10-25T12:27:32.190Z,994.64
2022-10-25T12:28:33.708Z,994.57
2022-10-25T12:29:32.169Z,994.58
2022-10-25T12:30:32.712Z,994.61
2022-10-25T12:31:32.184Z,994.62
2022-10-25T12:32:32.145Z,994.59
2022-10-25T12:33:32.132Z,994.58
2022-10-25T12:34:32.131Z,994.63